Terminal Aerodrome Forecast
Issued by NWS Wilmington, NC

Home | Current Version | Previous Version | Text Only | Print | Product List | Glossary On
Versions: 1 2 3 4 5 6 7 8 9 10 11 12 13 14 15 16 17 18 19 20
467
FTUS42 KILM 132329
TAFILM
TAF
KILM 132329Z 1400/1424 36007KT P6SM SKC
     FM141400 02011KT P6SM FEW120 SCT250
     FM142100 06007KT P6SM SCT050 BKN200=

USA.gov is the U.S. government's official web portal to all federal, state and local government web resources and services.